sensor_id;sensor_type;location;lat;lon;timestamp;P1;durP1;ratioP1;P2;durP2;ratioP2
49392;SDS011;35268;42.642;23.308;2023-03-21T00:00:29;16.45;;;6.57;;
49392;SDS011;35268;42.642;23.308;2023-03-21T00:02:55;14.88;;;6.85;;
49392;SDS011;35268;42.642;23.308;2023-03-21T00:05:21;11.93;;;6.35;;
49392;SDS011;35268;42.642;23.308;2023-03-21T00:07:46;20.23;;;7.53;;
49392;SDS011;35268;42.642;23.308;2023-03-21T00:10:12;15.43;;;7.22;;
49392;SDS011;35268;42.642;23.308;2023-03-21T00:12:37;16.30;;;7.40;;
49392;SDS011;35268;42.642;23.308;2023-03-21T00:15:04;17.17;;;8.18;;
49392;SDS011;35268;42.642;23.308;2023-03-21T00:17:31;21.33;;;10.32;;
49392;SDS011;35268;42.642;23.308;2023-03-21T00:20:01;26.92;;;11.13;;
49392;SDS011;35268;42.642;23.308;2023-03-21T00:22:30;23.92;;;10.90;;
49392;SDS011;35268;42.642;23.308;2023-03-21T00:24:59;25.48;;;10.10;;
49392;SDS011;35268;42.642;23.308;2023-03-21T00:27:24;21.23;;;9.88;;
49392;SDS011;35268;42.642;23.308;2023-03-21T00:29:50;22.63;;;11.02;;
49392;SDS011;35268;42.642;23.308;2023-03-21T00:32:16;29.48;;;10.68;;
49392;SDS011;35268;42.642;23.308;2023-03-21T00:34:42;22.10;;;9.52;;
49392;SDS011;35268;42.642;23.308;2023-03-21T00:37:09;21.48;;;9.73;;
49392;SDS011;35268;42.642;23.308;2023-03-21T00:39:37;24.17;;;10.23;;
49392;SDS011;35268;42.642;23.308;2023-03-21T00:42:02;24.77;;;10.10;;
49392;SDS011;35268;42.642;23.308;2023-03-21T00:44:28;21.00;;;10.18;;
49392;SDS011;35268;42.642;23.308;2023-03-21T00:46:53;22.38;;;9.98;;
49392;SDS011;35268;42.642;23.308;2023-03-21T00:49:19;22.08;;;9.85;;
49392;SDS011;35268;42.642;23.308;2023-03-21T00:51:45;22.08;;;10.25;;
49392;SDS011;35268;42.642;23.308;2023-03-21T00:54:15;22.90;;;10.88;;
49392;SDS011;35268;42.642;23.308;2023-03-21T00:56:41;21.55;;;10.48;;
49392;SDS011;35268;42.642;23.308;2023-03-21T00:59:06;21.77;;;9.10;;
49392;SDS011;35268;42.642;23.308;2023-03-21T01:01:32;25.50;;;10.77;;
49392;SDS011;35268;42.642;23.308;2023-03-21T01:03:58;30.10;;;11.15;;
49392;SDS011;35268;42.642;23.308;2023-03-21T01:06:28;29.02;;;13.20;;
49392;SDS011;35268;42.642;23.308;2023-03-21T01:08:54;33.78;;;12.40;;
49392;SDS011;35268;42.642;23.308;2023-03-21T01:11:21;27.50;;;11.18;;
49392;SDS011;35268;42.642;23.308;2023-03-21T01:13:51;23.03;;;9.30;;
49392;SDS011;35268;42.642;23.308;2023-03-21T01:16:17;28.25;;;10.90;;
49392;SDS011;35268;42.642;23.308;2023-03-21T01:18:43;28.10;;;11.38;;
49392;SDS011;35268;42.642;23.308;2023-03-21T01:21:10;28.90;;;11.10;;
49392;SDS011;35268;42.642;23.308;2023-03-21T01:23:38;25.85;;;11.10;;
49392;SDS011;35268;42.642;23.308;2023-03-21T01:26:05;21.90;;;8.82;;
49392;SDS011;35268;42.642;23.308;2023-03-21T01:28:32;26.42;;;9.00;;
49392;SDS011;35268;42.642;23.308;2023-03-21T01:31:00;20.20;;;8.70;;
49392;SDS011;35268;42.642;23.308;2023-03-21T01:33:27;15.05;;;7.38;;
49392;SDS011;35268;42.642;23.308;2023-03-21T01:35:53;17.80;;;7.82;;
49392;SDS011;35268;42.642;23.308;2023-03-21T01:38:19;22.90;;;9.55;;
49392;SDS011;35268;42.642;23.308;2023-03-21T01:40:46;23.70;;;8.27;;
49392;SDS011;35268;42.642;23.308;2023-03-21T01:43:32;18.83;;;8.23;;
49392;SDS011;35268;42.642;23.308;2023-03-21T01:48:24;22.17;;;8.90;;
49392;SDS011;35268;42.642;23.308;2023-03-21T01:50:53;20.80;;;8.80;;
49392;SDS011;35268;42.642;23.308;2023-03-21T01:53:19;21.58;;;8.77;;
49392;SDS011;35268;42.642;23.308;2023-03-21T01:55:48;19.88;;;8.25;;
49392;SDS011;35268;42.642;23.308;2023-03-21T01:58:13;18.85;;;8.60;;
49392;SDS011;35268;42.642;23.308;2023-03-21T02:00:46;22.10;;;8.57;;
49392;SDS011;35268;42.642;23.308;2023-03-21T02:03:14;15.05;;;8.00;;
49392;SDS011;35268;42.642;23.308;2023-03-21T02:08:25;17.40;;;7.28;;
49392;SDS011;35268;42.642;23.308;2023-03-21T02:10:52;15.90;;;7.05;;
49392;SDS011;35268;42.642;23.308;2023-03-21T02:13:17;20.98;;;7.90;;
49392;SDS011;35268;42.642;23.308;2023-03-21T02:16:06;26.13;;;8.63;;
49392;SDS011;35268;42.642;23.308;2023-03-21T02:21:59;16.60;;;7.63;;
49392;SDS011;35268;42.642;23.308;2023-03-21T02:27:55;13.95;;;6.95;;
49392;SDS011;35268;42.642;23.308;2023-03-21T02:32:58;18.55;;;7.72;;
49392;SDS011;35268;42.642;23.308;2023-03-21T02:46:19;18.40;;;7.90;;
49392;SDS011;35268;42.642;23.308;2023-03-21T02:51:50;18.23;;;7.18;;
49392;SDS011;35268;42.642;23.308;2023-03-21T02:54:17;17.88;;;6.97;;
49392;SDS011;35268;42.642;23.308;2023-03-21T02:56:45;19.55;;;8.32;;
49392;SDS011;35268;42.642;23.308;2023-03-21T02:59:13;17.00;;;6.43;;
49392;SDS011;35268;42.642;23.308;2023-03-21T03:01:40;16.60;;;5.75;;
49392;SDS011;35268;42.642;23.308;2023-03-21T03:04:16;11.95;;;5.50;;
49392;SDS011;35268;42.642;23.308;2023-03-21T03:09:38;11.07;;;5.10;;
49392;SDS011;35268;42.642;23.308;2023-03-21T03:12:21;11.80;;;5.30;;
49392;SDS011;35268;42.642;23.308;2023-03-21T03:20:13;13.80;;;4.28;;
49392;SDS011;35268;42.642;23.308;2023-03-21T03:22:47;16.33;;;4.45;;
49392;SDS011;35268;42.642;23.308;2023-03-21T03:25:29;10.75;;;4.70;;
49392;SDS011;35268;42.642;23.308;2023-03-21T03:28:00;15.25;;;5.68;;
49392;SDS011;35268;42.642;23.308;2023-03-21T03:30:28;10.18;;;4.57;;
49392;SDS011;35268;42.642;23.308;2023-03-21T03:32:56;10.68;;;5.47;;
49392;SDS011;35268;42.642;23.308;2023-03-21T03:35:26;19.65;;;5.80;;
49392;SDS011;35268;42.642;23.308;2023-03-21T03:37:52;14.52;;;6.10;;
49392;SDS011;35268;42.642;23.308;2023-03-21T03:40:26;16.90;;;5.13;;
49392;SDS011;35268;42.642;23.308;2023-03-21T03:42:55;16.55;;;6.28;;
49392;SDS011;35268;42.642;23.308;2023-03-21T03:45:37;16.63;;;6.40;;
49392;SDS011;35268;42.642;23.308;2023-03-21T03:50:49;12.45;;;6.50;;
49392;SDS011;35268;42.642;23.308;2023-03-21T03:53:24;11.55;;;6.05;;
49392;SDS011;35268;42.642;23.308;2023-03-21T03:55:54;13.25;;;6.03;;
49392;SDS011;35268;42.642;23.308;2023-03-21T03:58:21;16.35;;;6.18;;
49392;SDS011;35268;42.642;23.308;2023-03-21T04:00:47;13.48;;;6.25;;
49392;SDS011;35268;42.642;23.308;2023-03-21T04:03:13;10.80;;;5.53;;
49392;SDS011;35268;42.642;23.308;2023-03-21T04:05:39;13.90;;;5.85;;
49392;SDS011;35268;42.642;23.308;2023-03-21T04:08:06;9.23;;;5.65;;
49392;SDS011;35268;42.642;23.308;2023-03-21T04:10:32;12.55;;;5.28;;
49392;SDS011;35268;42.642;23.308;2023-03-21T04:12:58;12.98;;;6.05;;
49392;SDS011;35268;42.642;23.308;2023-03-21T04:15:23;12.70;;;6.03;;
49392;SDS011;35268;42.642;23.308;2023-03-21T04:17:49;12.65;;;5.65;;
49392;SDS011;35268;42.642;23.308;2023-03-21T04:20:14;15.75;;;7.07;;
49392;SDS011;35268;42.642;23.308;2023-03-21T04:22:40;16.90;;;6.07;;
49392;SDS011;35268;42.642;23.308;2023-03-21T04:25:06;18.73;;;6.85;;
49392;SDS011;35268;42.642;23.308;2023-03-21T04:27:32;11.95;;;6.28;;
49392;SDS011;35268;42.642;23.308;2023-03-21T04:29:57;14.75;;;6.63;;
49392;SDS011;35268;42.642;23.308;2023-03-21T04:32:23;14.10;;;6.28;;
49392;SDS011;35268;42.642;23.308;2023-03-21T04:34:49;18.65;;;6.38;;
49392;SDS011;35268;42.642;23.308;2023-03-21T04:37:18;14.77;;;5.97;;
49392;SDS011;35268;42.642;23.308;2023-03-21T04:39:45;16.05;;;5.50;;
49392;SDS011;35268;42.642;23.308;2023-03-21T04:42:12;23.70;;;6.13;;
49392;SDS011;35268;42.642;23.308;2023-03-21T04:44:39;11.80;;;6.35;;
49392;SDS011;35268;42.642;23.308;2023-03-21T04:47:04;15.43;;;5.65;;
49392;SDS011;35268;42.642;23.308;2023-03-21T04:49:30;11.68;;;5.88;;
49392;SDS011;35268;42.642;23.308;2023-03-21T04:51:55;16.27;;;6.18;;
49392;SDS011;35268;42.642;23.308;2023-03-21T04:54:21;9.68;;;5.22;;
49392;SDS011;35268;42.642;23.308;2023-03-21T04:56:46;15.63;;;5.50;;
49392;SDS011;35268;42.642;23.308;2023-03-21T04:59:13;16.90;;;5.43;;
49392;SDS011;35268;42.642;23.308;2023-03-21T05:01:39;17.33;;;6.93;;
49392;SDS011;35268;42.642;23.308;2023-03-21T05:04:07;15.52;;;7.35;;
49392;SDS011;35268;42.642;23.308;2023-03-21T05:06:33;15.98;;;6.75;;
49392;SDS011;35268;42.642;23.308;2023-03-21T05:09:00;17.10;;;6.65;;
49392;SDS011;35268;42.642;23.308;2023-03-21T05:11:29;23.20;;;8.88;;
49392;SDS011;35268;42.642;23.308;2023-03-21T05:13:58;24.33;;;8.25;;
49392;SDS011;35268;42.642;23.308;2023-03-21T05:16:24;25.50;;;8.55;;
49392;SDS011;35268;42.642;23.308;2023-03-21T05:18:54;25.05;;;8.68;;
49392;SDS011;35268;42.642;23.308;2023-03-21T05:21:20;30.67;;;8.27;;
49392;SDS011;35268;42.642;23.308;2023-03-21T05:23:46;26.92;;;9.50;;
49392;SDS011;35268;42.642;23.308;2023-03-21T05:26:18;20.15;;;7.25;;
49392;SDS011;35268;42.642;23.308;2023-03-21T05:28:45;28.48;;;8.45;;
49392;SDS011;35268;42.642;23.308;2023-03-21T05:31:12;29.52;;;7.30;;
49392;SDS011;35268;42.642;23.308;2023-03-21T05:33:40;26.98;;;9.00;;
49392;SDS011;35268;42.642;23.308;2023-03-21T05:36:06;23.25;;;8.73;;
49392;SDS011;35268;42.642;23.308;2023-03-21T05:38:33;27.92;;;8.73;;
49392;SDS011;35268;42.642;23.308;2023-03-21T05:40:59;21.88;;;8.75;;
49392;SDS011;35268;42.642;23.308;2023-03-21T05:43:24;19.52;;;6.75;;
49392;SDS011;35268;42.642;23.308;2023-03-21T05:45:50;16.25;;;6.78;;
49392;SDS011;35268;42.642;23.308;2023-03-21T05:48:15;15.13;;;5.72;;
49392;SDS011;35268;42.642;23.308;2023-03-21T05:50:41;25.60;;;9.73;;
49392;SDS011;35268;42.642;23.308;2023-03-21T05:53:06;11.38;;;5.22;;
49392;SDS011;35268;42.642;23.308;2023-03-21T05:55:32;10.48;;;5.40;;
49392;SDS011;35268;42.642;23.308;2023-03-21T05:57:57;11.75;;;5.80;;
49392;SDS011;35268;42.642;23.308;2023-03-21T06:00:22;13.65;;;5.10;;
49392;SDS011;35268;42.642;23.308;2023-03-21T06:02:48;18.65;;;5.57;;
49392;SDS011;35268;42.642;23.308;2023-03-21T06:05:14;19.73;;;5.80;;
49392;SDS011;35268;42.642;23.308;2023-03-21T06:07:39;14.68;;;6.28;;
49392;SDS011;35268;42.642;23.308;2023-03-21T06:10:05;14.15;;;6.70;;
49392;SDS011;35268;42.642;23.308;2023-03-21T06:12:31;14.13;;;6.00;;
49392;SDS011;35268;42.642;23.308;2023-03-21T06:14:56;13.95;;;5.30;;
49392;SDS011;35268;42.642;23.308;2023-03-21T06:17:22;19.30;;;6.90;;
49392;SDS011;35268;42.642;23.308;2023-03-21T06:19:47;17.27;;;5.20;;
49392;SDS011;35268;42.642;23.308;2023-03-21T06:22:13;10.70;;;5.18;;
49392;SDS011;35268;42.642;23.308;2023-03-21T06:24:38;12.43;;;5.75;;
49392;SDS011;35268;42.642;23.308;2023-03-21T06:27:04;18.77;;;5.78;;
49392;SDS011;35268;42.642;23.308;2023-03-21T06:29:30;15.35;;;5.68;;
49392;SDS011;35268;42.642;23.308;2023-03-21T06:31:56;11.73;;;6.25;;
49392;SDS011;35268;42.642;23.308;2023-03-21T06:34:21;18.92;;;6.47;;
49392;SDS011;35268;42.642;23.308;2023-03-21T06:36:47;19.25;;;6.95;;
49392;SDS011;35268;42.642;23.308;2023-03-21T06:39:12;23.35;;;8.63;;
49392;SDS011;35268;42.642;23.308;2023-03-21T06:41:39;17.10;;;6.80;;
49392;SDS011;35268;42.642;23.308;2023-03-21T06:44:05;28.45;;;8.25;;
49392;SDS011;35268;42.642;23.308;2023-03-21T06:46:31;32.28;;;7.78;;
49392;SDS011;35268;42.642;23.308;2023-03-21T06:48:57;22.88;;;8.20;;
49392;SDS011;35268;42.642;23.308;2023-03-21T06:51:22;18.08;;;7.78;;
49392;SDS011;35268;42.642;23.308;2023-03-21T06:53:48;22.30;;;9.82;;
49392;SDS011;35268;42.642;23.308;2023-03-21T06:56:13;17.58;;;7.97;;
49392;SDS011;35268;42.642;23.308;2023-03-21T06:58:39;21.70;;;8.40;;
49392;SDS011;35268;42.642;23.308;2023-03-21T07:01:05;20.85;;;8.65;;
49392;SDS011;35268;42.642;23.308;2023-03-21T07:03:32;37.45;;;8.65;;
49392;SDS011;35268;42.642;23.308;2023-03-21T07:05:58;29.25;;;9.35;;
49392;SDS011;35268;42.642;23.308;2023-03-21T07:08:28;26.95;;;11.82;;
49392;SDS011;35268;42.642;23.308;2023-03-21T07:10:54;29.10;;;9.40;;
49392;SDS011;35268;42.642;23.308;2023-03-21T07:13:21;28.73;;;9.95;;
49392;SDS011;35268;42.642;23.308;2023-03-21T07:15:46;27.88;;;10.00;;
49392;SDS011;35268;42.642;23.308;2023-03-21T07:18:11;38.95;;;9.55;;
49392;SDS011;35268;42.642;23.308;2023-03-21T07:20:37;21.20;;;9.77;;
49392;SDS011;35268;42.642;23.308;2023-03-21T07:23:03;31.10;;;9.57;;
49392;SDS011;35268;42.642;23.308;2023-03-21T07:25:29;32.55;;;10.10;;
49392;SDS011;35268;42.642;23.308;2023-03-21T07:27:54;25.95;;;9.10;;
49392;SDS011;35268;42.642;23.308;2023-03-21T07:30:21;24.58;;;9.30;;
49392;SDS011;35268;42.642;23.308;2023-03-21T07:32:46;21.83;;;10.23;;
49392;SDS011;35268;42.642;23.308;2023-03-21T07:35:17;41.08;;;12.15;;
49392;SDS011;35268;42.642;23.308;2023-03-21T07:37:42;31.73;;;8.82;;
49392;SDS011;35268;42.642;23.308;2023-03-21T07:40:08;31.58;;;9.02;;
49392;SDS011;35268;42.642;23.308;2023-03-21T07:42:35;25.55;;;9.27;;
49392;SDS011;35268;42.642;23.308;2023-03-21T07:45:02;23.08;;;8.70;;
49392;SDS011;35268;42.642;23.308;2023-03-21T07:47:29;25.33;;;9.23;;
49392;SDS011;35268;42.642;23.308;2023-03-21T07:49:55;27.73;;;8.95;;
49392;SDS011;35268;42.642;23.308;2023-03-21T07:52:20;26.50;;;8.43;;
49392;SDS011;35268;42.642;23.308;2023-03-21T07:54:46;15.45;;;8.82;;
49392;SDS011;35268;42.642;23.308;2023-03-21T07:57:11;27.38;;;9.07;;
49392;SDS011;35268;42.642;23.308;2023-03-21T07:59:37;21.25;;;8.13;;
49392;SDS011;35268;42.642;23.308;2023-03-21T08:02:02;19.30;;;7.03;;
49392;SDS011;35268;42.642;23.308;2023-03-21T08:04:27;20.73;;;7.57;;
49392;SDS011;35268;42.642;23.308;2023-03-21T08:06:53;21.02;;;7.72;;
49392;SDS011;35268;42.642;23.308;2023-03-21T08:09:18;26.25;;;7.57;;
49392;SDS011;35268;42.642;23.308;2023-03-21T08:11:44;20.73;;;7.20;;
49392;SDS011;35268;42.642;23.308;2023-03-21T08:14:10;19.05;;;7.40;;
49392;SDS011;35268;42.642;23.308;2023-03-21T08:16:35;18.23;;;8.18;;
49392;SDS011;35268;42.642;23.308;2023-03-21T08:19:01;27.13;;;9.93;;
49392;SDS011;35268;42.642;23.308;2023-03-21T08:21:26;20.63;;;8.60;;
49392;SDS011;35268;42.642;23.308;2023-03-21T08:23:52;26.42;;;9.52;;
49392;SDS011;35268;42.642;23.308;2023-03-21T08:26:18;17.92;;;8.13;;
49392;SDS011;35268;42.642;23.308;2023-03-21T08:28:43;19.73;;;8.20;;
49392;SDS011;35268;42.642;23.308;2023-03-21T08:31:10;28.00;;;8.15;;
49392;SDS011;35268;42.642;23.308;2023-03-21T08:33:37;18.02;;;8.07;;
49392;SDS011;35268;42.642;23.308;2023-03-21T08:36:03;20.92;;;8.38;;
49392;SDS011;35268;42.642;23.308;2023-03-21T08:38:30;27.10;;;9.40;;
49392;SDS011;35268;42.642;23.308;2023-03-21T08:40:57;21.52;;;9.70;;
49392;SDS011;35268;42.642;23.308;2023-03-21T08:43:26;25.15;;;9.75;;
49392;SDS011;35268;42.642;23.308;2023-03-21T08:45:52;22.20;;;9.30;;
49392;SDS011;35268;42.642;23.308;2023-03-21T08:48:18;22.35;;;8.88;;
49392;SDS011;35268;42.642;23.308;2023-03-21T08:50:43;33.25;;;11.55;;
49392;SDS011;35268;42.642;23.308;2023-03-21T08:53:09;27.15;;;9.23;;
49392;SDS011;35268;42.642;23.308;2023-03-21T08:55:35;23.05;;;9.27;;
49392;SDS011;35268;42.642;23.308;2023-03-21T08:58:00;17.48;;;8.07;;
49392;SDS011;35268;42.642;23.308;2023-03-21T09:00:26;20.00;;;9.13;;
49392;SDS011;35268;42.642;23.308;2023-03-21T09:02:52;14.57;;;8.10;;
49392;SDS011;35268;42.642;23.308;2023-03-21T09:05:18;23.95;;;8.55;;
49392;SDS011;35268;42.642;23.308;2023-03-21T09:07:44;18.92;;;6.82;;
49392;SDS011;35268;42.642;23.308;2023-03-21T09:10:14;17.42;;;8.43;;
49392;SDS011;35268;42.642;23.308;2023-03-21T09:12:41;18.35;;;7.28;;
49392;SDS011;35268;42.642;23.308;2023-03-21T09:15:08;19.13;;;9.18;;
49392;SDS011;35268;42.642;23.308;2023-03-21T09:17:36;28.75;;;9.57;;
49392;SDS011;35268;42.642;23.308;2023-03-21T09:20:12;19.80;;;9.95;;
49392;SDS011;35268;42.642;23.308;2023-03-21T09:22:45;24.95;;;9.68;;
49392;SDS011;35268;42.642;23.308;2023-03-21T09:25:12;40.45;;;9.80;;
49392;SDS011;35268;42.642;23.308;2023-03-21T09:27:39;21.40;;;10.00;;
49392;SDS011;35268;42.642;23.308;2023-03-21T09:30:05;28.23;;;9.60;;
49392;SDS011;35268;42.642;23.308;2023-03-21T09:32:33;25.85;;;9.75;;
49392;SDS011;35268;42.642;23.308;2023-03-21T09:34:59;20.92;;;9.82;;
49392;SDS011;35268;42.642;23.308;2023-03-21T09:37:24;23.63;;;9.48;;
49392;SDS011;35268;42.642;23.308;2023-03-21T09:39:51;21.52;;;9.93;;
49392;SDS011;35268;42.642;23.308;2023-03-21T09:47:44;24.15;;;9.32;;
49392;SDS011;35268;42.642;23.308;2023-03-21T09:50:19;35.70;;;10.13;;
49392;SDS011;35268;42.642;23.308;2023-03-21T09:52:59;25.40;;;8.88;;
49392;SDS011;35268;42.642;23.308;2023-03-21T09:55:33;20.73;;;8.63;;
49392;SDS011;35268;42.642;23.308;2023-03-21T10:00:32;19.30;;;8.55;;
49392;SDS011;35268;42.642;23.308;2023-03-21T10:03:02;17.92;;;9.15;;
49392;SDS011;35268;42.642;23.308;2023-03-21T10:05:33;31.83;;;9.82;;
49392;SDS011;35268;42.642;23.308;2023-03-21T10:08:08;33.88;;;9.10;;
49392;SDS011;35268;42.642;23.308;2023-03-21T10:10:40;27.67;;;8.43;;
49392;SDS011;35268;42.642;23.308;2023-03-21T10:13:12;19.55;;;7.90;;
49392;SDS011;35268;42.642;23.308;2023-03-21T10:15:40;21.55;;;8.02;;
49392;SDS011;35268;42.642;23.308;2023-03-21T10:18:06;16.92;;;7.32;;
49392;SDS011;35268;42.642;23.308;2023-03-21T10:20:39;24.58;;;8.07;;
49392;SDS011;35268;42.642;23.308;2023-03-21T10:23:07;21.00;;;7.78;;
49392;SDS011;35268;42.642;23.308;2023-03-21T10:28:06;24.88;;;8.20;;
49392;SDS011;35268;42.642;23.308;2023-03-21T10:30:47;22.83;;;7.15;;
49392;SDS011;35268;42.642;23.308;2023-03-21T10:33:21;22.77;;;6.55;;
49392;SDS011;35268;42.642;23.308;2023-03-21T10:35:51;16.30;;;6.25;;
49392;SDS011;35268;42.642;23.308;2023-03-21T10:38:20;14.50;;;7.00;;
49392;SDS011;35268;42.642;23.308;2023-03-21T10:40:48;17.02;;;6.95;;
49392;SDS011;35268;42.642;23.308;2023-03-21T10:43:15;15.73;;;7.32;;
49392;SDS011;35268;42.642;23.308;2023-03-21T10:45:45;13.60;;;5.88;;
49392;SDS011;35268;42.642;23.308;2023-03-21T10:48:11;13.55;;;5.97;;
49392;SDS011;35268;42.642;23.308;2023-03-21T10:50:37;16.67;;;5.68;;
49392;SDS011;35268;42.642;23.308;2023-03-21T10:53:05;19.85;;;5.75;;
49392;SDS011;35268;42.642;23.308;2023-03-21T10:55:39;19.13;;;6.53;;
49392;SDS011;35268;42.642;23.308;2023-03-21T10:58:07;15.90;;;6.75;;
49392;SDS011;35268;42.642;23.308;2023-03-21T11:00:38;18.80;;;8.30;;
49392;SDS011;35268;42.642;23.308;2023-03-21T11:03:06;26.33;;;7.50;;
49392;SDS011;35268;42.642;23.308;2023-03-21T11:05:45;21.80;;;8.88;;
49392;SDS011;35268;42.642;23.308;2023-03-21T11:08:14;20.92;;;7.68;;
49392;SDS011;35268;42.642;23.308;2023-03-21T11:13:18;18.85;;;8.10;;
49392;SDS011;35268;42.642;23.308;2023-03-21T11:18:20;25.75;;;9.55;;
49392;SDS011;35268;42.642;23.308;2023-03-21T11:20:51;25.25;;;9.63;;
49392;SDS011;35268;42.642;23.308;2023-03-21T11:23:28;20.27;;;8.90;;
49392;SDS011;35268;42.642;23.308;2023-03-21T11:25:57;19.38;;;8.23;;
49392;SDS011;35268;42.642;23.308;2023-03-21T11:28:25;19.52;;;8.90;;
49392;SDS011;35268;42.642;23.308;2023-03-21T11:30:58;19.80;;;9.15;;
49392;SDS011;35268;42.642;23.308;2023-03-21T11:33:36;17.92;;;8.25;;
49392;SDS011;35268;42.642;23.308;2023-03-21T11:38:43;15.90;;;7.10;;
49392;SDS011;35268;42.642;23.308;2023-03-21T11:44:23;17.08;;;7.43;;
49392;SDS011;35268;42.642;23.308;2023-03-21T11:47:07;14.65;;;7.15;;
49392;SDS011;35268;42.642;23.308;2023-03-21T11:49:34;15.32;;;7.25;;
49392;SDS011;35268;42.642;23.308;2023-03-21T11:52:16;16.55;;;5.85;;
49392;SDS011;35268;42.642;23.308;2023-03-21T11:58:02;10.57;;;5.63;;
49392;SDS011;35268;42.642;23.308;2023-03-21T12:00:40;13.88;;;5.32;;
49392;SDS011;35268;42.642;23.308;2023-03-21T12:06:04;21.40;;;5.95;;
49392;SDS011;35268;42.642;23.308;2023-03-21T12:11:17;12.40;;;5.00;;
49392;SDS011;35268;42.642;23.308;2023-03-21T12:19:42;17.38;;;4.55;;
49392;SDS011;35268;42.642;23.308;2023-03-21T12:22:20;18.17;;;5.43;;
49392;SDS011;35268;42.642;23.308;2023-03-21T12:25:17;11.82;;;4.80;;
49392;SDS011;35268;42.642;23.308;2023-03-21T12:30:31;19.38;;;4.80;;
49392;SDS011;35268;42.642;23.308;2023-03-21T12:44:30;10.52;;;4.47;;
49392;SDS011;35268;42.642;23.308;2023-03-21T12:47:00;9.60;;;3.85;;
49392;SDS011;35268;42.642;23.308;2023-03-21T12:52:20;6.05;;;3.88;;
49392;SDS011;35268;42.642;23.308;2023-03-21T12:54:49;14.68;;;4.57;;
49392;SDS011;35268;42.642;23.308;2023-03-21T13:02:29;18.45;;;5.00;;
49392;SDS011;35268;42.642;23.308;2023-03-21T13:07:42;10.68;;;5.32;;
49392;SDS011;35268;42.642;23.308;2023-03-21T13:10:13;15.30;;;5.68;;
49392;SDS011;35268;42.642;23.308;2023-03-21T13:12:50;15.38;;;4.72;;
49392;SDS011;35268;42.642;23.308;2023-03-21T13:15:28;11.95;;;4.63;;
49392;SDS011;35268;42.642;23.308;2023-03-21T13:17:58;11.52;;;3.70;;
49392;SDS011;35268;42.642;23.308;2023-03-21T13:23:08;13.77;;;4.32;;
49392;SDS011;35268;42.642;23.308;2023-03-21T13:25:38;15.43;;;4.30;;
49392;SDS011;35268;42.642;23.308;2023-03-21T13:28:26;12.15;;;3.97;;
49392;SDS011;35268;42.642;23.308;2023-03-21T13:30:59;12.18;;;4.28;;
49392;SDS011;35268;42.642;23.308;2023-03-21T13:33:41;15.57;;;4.53;;
49392;SDS011;35268;42.642;23.308;2023-03-21T13:36:31;6.95;;;3.67;;
49392;SDS011;35268;42.642;23.308;2023-03-21T13:39:03;18.00;;;5.32;;
49392;SDS011;35268;42.642;23.308;2023-03-21T13:44:15;8.93;;;4.60;;
49392;SDS011;35268;42.642;23.308;2023-03-21T13:46:54;13.60;;;4.68;;
49392;SDS011;35268;42.642;23.308;2023-03-21T13:49:25;9.45;;;4.60;;
49392;SDS011;35268;42.642;23.308;2023-03-21T13:54:27;8.60;;;4.38;;
49392;SDS011;35268;42.642;23.308;2023-03-21T13:57:33;14.00;;;6.18;;
49392;SDS011;35268;42.642;23.308;2023-03-21T14:00:22;9.32;;;3.88;;
49392;SDS011;35268;42.642;23.308;2023-03-21T14:02:55;10.43;;;4.38;;
49392;SDS011;35268;42.642;23.308;2023-03-21T14:05:32;15.77;;;4.90;;
49392;SDS011;35268;42.642;23.308;2023-03-21T14:08:03;13.40;;;5.45;;
49392;SDS011;35268;42.642;23.308;2023-03-21T14:10:37;13.32;;;5.05;;
49392;SDS011;35268;42.642;23.308;2023-03-21T14:13:06;9.45;;;4.25;;
49392;SDS011;35268;42.642;23.308;2023-03-21T14:15:39;9.38;;;4.78;;
49392;SDS011;35268;42.642;23.308;2023-03-21T14:18:12;16.20;;;4.70;;
49392;SDS011;35268;42.642;23.308;2023-03-21T14:23:07;19.30;;;4.43;;
49392;SDS011;35268;42.642;23.308;2023-03-21T14:25:37;11.47;;;4.53;;
49392;SDS011;35268;42.642;23.308;2023-03-21T14:28:12;14.52;;;3.97;;
49392;SDS011;35268;42.642;23.308;2023-03-21T14:30:54;8.75;;;4.20;;
49392;SDS011;35268;42.642;23.308;2023-03-21T14:36:05;8.98;;;3.83;;
49392;SDS011;35268;42.642;23.308;2023-03-21T14:38:36;12.00;;;4.32;;
49392;SDS011;35268;42.642;23.308;2023-03-21T14:41:04;15.20;;;4.53;;
49392;SDS011;35268;42.642;23.308;2023-03-21T14:43:30;11.63;;;4.90;;
49392;SDS011;35268;42.642;23.308;2023-03-21T14:45:58;9.68;;;4.72;;
49392;SDS011;35268;42.642;23.308;2023-03-21T14:48:29;17.52;;;5.00;;
49392;SDS011;35268;42.642;23.308;2023-03-21T14:50:56;12.57;;;4.28;;
49392;SDS011;35268;42.642;23.308;2023-03-21T14:53:27;11.25;;;4.65;;
49392;SDS011;35268;42.642;23.308;2023-03-21T14:56:01;12.38;;;5.00;;
49392;SDS011;35268;42.642;23.308;2023-03-21T14:58:30;21.85;;;5.07;;
49392;SDS011;35268;42.642;23.308;2023-03-21T15:01:05;9.95;;;5.18;;
49392;SDS011;35268;42.642;23.308;2023-03-21T15:03:37;13.18;;;5.22;;
49392;SDS011;35268;42.642;23.308;2023-03-21T15:06:03;12.25;;;4.65;;
49392;SDS011;35268;42.642;23.308;2023-03-21T15:08:35;10.65;;;4.63;;
49392;SDS011;35268;42.642;23.308;2023-03-21T15:11:02;19.05;;;5.65;;
49392;SDS011;35268;42.642;23.308;2023-03-21T15:16:16;7.82;;;4.57;;
49392;SDS011;35268;42.642;23.308;2023-03-21T15:18:42;8.73;;;4.68;;
49392;SDS011;35268;42.642;23.308;2023-03-21T15:21:26;14.43;;;4.15;;
49392;SDS011;35268;42.642;23.308;2023-03-21T15:24:00;10.77;;;5.65;;
49392;SDS011;35268;42.642;23.308;2023-03-21T15:26:32;8.73;;;4.82;;
49392;SDS011;35268;42.642;23.308;2023-03-21T15:28:58;9.32;;;4.03;;
49392;SDS011;35268;42.642;23.308;2023-03-21T15:31:27;9.75;;;5.25;;
49392;SDS011;35268;42.642;23.308;2023-03-21T15:33:55;9.75;;;5.32;;
49392;SDS011;35268;42.642;23.308;2023-03-21T15:36:22;12.70;;;6.20;;
49392;SDS011;35268;42.642;23.308;2023-03-21T15:38:51;10.45;;;5.95;;
49392;SDS011;35268;42.642;23.308;2023-03-21T15:43:44;8.88;;;4.78;;
49392;SDS011;35268;42.642;23.308;2023-03-21T15:46:13;13.60;;;5.43;;
49392;SDS011;35268;42.642;23.308;2023-03-21T15:48:40;10.00;;;4.70;;
49392;SDS011;35268;42.642;23.308;2023-03-21T15:51:06;10.77;;;5.60;;
49392;SDS011;35268;42.642;23.308;2023-03-21T15:53:41;9.30;;;5.25;;
49392;SDS011;35268;42.642;23.308;2023-03-21T15:56:08;14.93;;;6.03;;
49392;SDS011;35268;42.642;23.308;2023-03-21T15:58:43;14.68;;;7.05;;
49392;SDS011;35268;42.642;23.308;2023-03-21T16:01:15;17.63;;;7.70;;
49392;SDS011;35268;42.642;23.308;2023-03-21T16:03:43;15.93;;;7.78;;
49392;SDS011;35268;42.642;23.308;2023-03-21T16:08:49;21.35;;;11.95;;
49392;SDS011;35268;42.642;23.308;2023-03-21T16:11:23;22.05;;;11.25;;
49392;SDS011;35268;42.642;23.308;2023-03-21T16:13:52;18.38;;;7.68;;
49392;SDS011;35268;42.642;23.308;2023-03-21T16:16:22;13.93;;;8.13;;
49392;SDS011;35268;42.642;23.308;2023-03-21T16:18:50;12.35;;;7.65;;
49392;SDS011;35268;42.642;23.308;2023-03-21T16:21:16;16.60;;;8.88;;
49392;SDS011;35268;42.642;23.308;2023-03-21T16:23:46;16.20;;;7.57;;
49392;SDS011;35268;42.642;23.308;2023-03-21T16:26:13;13.85;;;8.13;;
49392;SDS011;35268;42.642;23.308;2023-03-21T16:28:41;15.80;;;7.95;;
49392;SDS011;35268;42.642;23.308;2023-03-21T16:31:12;17.30;;;8.88;;